sensor_id;sensor_type;location;lat;lon;timestamp;pressure;altitude;pressure_sealevel;temperature;humidity
20987;BME280;10652;50.306;8.570;2023-07-20T00:02:50;97768.53;;;15.87;68.99
20987;BME280;10652;50.306;8.570;2023-07-20T00:06:52;97763.81;;;15.80;69.17
20987;BME280;10652;50.306;8.570;2023-07-20T00:10:54;97760.13;;;15.69;69.81
20987;BME280;10652;50.306;8.570;2023-07-20T00:14:57;97754.31;;;15.64;70.58
20987;BME280;10652;50.306;8.570;2023-07-20T00:18:59;97757.19;;;15.61;71.07
20987;BME280;10652;50.306;8.570;2023-07-20T00:23:01;97762.59;;;15.60;71.53
20987;BME280;10652;50.306;8.570;2023-07-20T00:27:03;97753.38;;;15.53;71.48
20987;BME280;10652;50.306;8.570;2023-07-20T00:31:05;97754.66;;;15.47;72.04
20987;BME280;10652;50.306;8.570;2023-07-20T00:35:08;97749.69;;;15.43;72.81
20987;BME280;10652;50.306;8.570;2023-07-20T00:39:10;97758.91;;;15.37;73.41
20987;BME280;10652;50.306;8.570;2023-07-20T00:43:12;97753.94;;;15.32;73.93
20987;BME280;10652;50.306;8.570;2023-07-20T00:47:15;97761.50;;;15.26;74.53
20987;BME280;10652;50.306;8.570;2023-07-20T00:51:17;97757.47;;;15.20;74.95
20987;BME280;10652;50.306;8.570;2023-07-20T00:55:20;97761.16;;;15.18;75.64
20987;BME280;10652;50.306;8.570;2023-07-20T00:59:23;97766.66;;;15.15;75.88
20987;BME280;10652;50.306;8.570;2023-07-20T01:03:25;97758.09;;;15.11;76.52
20987;BME280;10652;50.306;8.570;2023-07-20T01:07:34;97757.66;;;15.05;76.44
20987;BME280;10652;50.306;8.570;2023-07-20T01:15:49;97761.72;;;14.98;77.27
20987;BME280;10652;50.306;8.570;2023-07-20T01:19:52;97758.31;;;14.96;77.56
20987;BME280;10652;50.306;8.570;2023-07-20T01:24:25;97760.00;;;14.97;78.44
20987;BME280;10652;50.306;8.570;2023-07-20T01:33:02;97761.50;;;14.88;78.35
20987;BME280;10652;50.306;8.570;2023-07-20T01:37:05;97757.47;;;14.82;79.00
20987;BME280;10652;50.306;8.570;2023-07-20T01:41:09;97761.28;;;14.78;79.56
20987;BME280;10652;50.306;8.570;2023-07-20T01:45:12;97764.03;;;14.77;79.91
20987;BME280;10652;50.306;8.570;2023-07-20T01:49:14;97761.50;;;14.75;80.54
20987;BME280;10652;50.306;8.570;2023-07-20T01:53:20;97757.88;;;14.76;80.76
20987;BME280;10652;50.306;8.570;2023-07-20T01:57:23;97764.88;;;14.77;80.88
20987;BME280;10652;50.306;8.570;2023-07-20T02:01:25;97772.81;;;14.77;80.80
20987;BME280;10652;50.306;8.570;2023-07-20T02:05:27;97782.44;;;14.78;81.27
20987;BME280;10652;50.306;8.570;2023-07-20T02:09:29;97776.50;;;14.87;81.39
20987;BME280;10652;50.306;8.570;2023-07-20T02:13:31;97771.97;;;14.89;81.40
20987;BME280;10652;50.306;8.570;2023-07-20T02:17:33;97765.53;;;14.94;81.15
20987;BME280;10652;50.306;8.570;2023-07-20T02:21:37;97769.84;;;14.95;81.03
20987;BME280;10652;50.306;8.570;2023-07-20T02:25:40;97773.78;;;15.02;81.78
20987;BME280;10652;50.306;8.570;2023-07-20T02:29:43;97769.09;;;15.05;81.66
20987;BME280;10652;50.306;8.570;2023-07-20T02:33:45;97774.59;;;15.15;81.41
20987;BME280;10652;50.306;8.570;2023-07-20T02:37:47;97778.50;;;15.22;80.94
20987;BME280;10652;50.306;8.570;2023-07-20T02:41:50;97767.81;;;15.23;80.75
20987;BME280;10652;50.306;8.570;2023-07-20T02:45:52;97768.13;;;15.44;83.99
20987;BME280;10652;50.306;8.570;2023-07-20T02:49:55;97771.78;;;15.54;80.16
20987;BME280;10652;50.306;8.570;2023-07-20T02:53:57;97772.25;;;15.48;80.06
20987;BME280;10652;50.306;8.570;2023-07-20T02:57:59;97781.97;;;15.48;80.46
20987;BME280;10652;50.306;8.570;2023-07-20T03:02:01;97782.59;;;15.51;80.41
20987;BME280;10652;50.306;8.570;2023-07-20T03:06:03;97779.72;;;15.54;79.89
20987;BME280;10652;50.306;8.570;2023-07-20T03:10:06;97776.69;;;15.60;80.53
20987;BME280;10652;50.306;8.570;2023-07-20T03:14:11;97777.44;;;15.62;80.93
20987;BME280;10652;50.306;8.570;2023-07-20T03:18:13;97776.69;;;15.60;81.62
20987;BME280;10652;50.306;8.570;2023-07-20T03:22:16;97773.47;;;15.55;81.49
20987;BME280;10652;50.306;8.570;2023-07-20T03:26:19;97768.41;;;15.52;81.92
20987;BME280;10652;50.306;8.570;2023-07-20T03:30:21;97768.41;;;15.52;82.11
20987;BME280;10652;50.306;8.570;2023-07-20T03:34:25;97765.78;;;15.52;81.98
20987;BME280;10652;50.306;8.570;2023-07-20T03:38:27;97765.03;;;15.50;81.26
20987;BME280;10652;50.306;8.570;2023-07-20T03:42:29;97764.31;;;15.48;81.22
20987;BME280;10652;50.306;8.570;2023-07-20T03:46:32;97773.41;;;15.44;80.94
20987;BME280;10652;50.306;8.570;2023-07-20T03:50:36;97779.13;;;15.38;80.66
20987;BME280;10652;50.306;8.570;2023-07-20T03:54:38;97780.50;;;15.31;80.43
20987;BME280;10652;50.306;8.570;2023-07-20T03:58:40;97785.19;;;15.27;80.70
20987;BME280;10652;50.306;8.570;2023-07-20T04:02:43;97785.94;;;15.17;80.72
20987;BME280;10652;50.306;8.570;2023-07-20T04:06:46;97780.53;;;15.06;81.37
20987;BME280;10652;50.306;8.570;2023-07-20T04:10:48;97792.69;;;14.96;81.86
20987;BME280;10652;50.306;8.570;2023-07-20T04:14:50;97778.22;;;14.88;82.52
20987;BME280;10652;50.306;8.570;2023-07-20T04:18:54;97789.97;;;14.84;83.57
20987;BME280;10652;50.306;8.570;2023-07-20T04:22:57;97785.06;;;14.78;83.84
20987;BME280;10652;50.306;8.570;2023-07-20T04:26:59;97791.00;;;14.82;84.32
20987;BME280;10652;50.306;8.570;2023-07-20T04:31:13;97787.19;;;14.86;84.20
20987;BME280;10652;50.306;8.570;2023-07-20T04:39:43;97791.03;;;15.07;84.07
20987;BME280;10652;50.306;8.570;2023-07-20T04:43:46;97793.41;;;17.26;80.65
20987;BME280;10652;50.306;8.570;2023-07-20T04:47:53;97787.50;;;19.36;68.42
20987;BME280;10652;50.306;8.570;2023-07-20T04:51:56;97782.50;;;19.82;59.97
20987;BME280;10652;50.306;8.570;2023-07-20T04:55:59;97784.69;;;21.23;56.56
20987;BME280;10652;50.306;8.570;2023-07-20T05:00:01;97788.28;;;22.50;52.90
20987;BME280;10652;50.306;8.570;2023-07-20T05:04:04;97784.19;;;23.77;48.58
20987;BME280;10652;50.306;8.570;2023-07-20T05:08:06;97791.19;;;24.62;45.93
20987;BME280;10652;50.306;8.570;2023-07-20T05:12:08;97785.47;;;25.13;44.32
20987;BME280;10652;50.306;8.570;2023-07-20T05:16:11;97782.69;;;25.70;43.52
20987;BME280;10652;50.306;8.570;2023-07-20T05:20:14;97784.31;;;26.49;42.07
20987;BME280;10652;50.306;8.570;2023-07-20T05:24:16;97790.13;;;26.38;41.02
20987;BME280;10652;50.306;8.570;2023-07-20T05:28:18;97795.97;;;26.18;42.04
20987;BME280;10652;50.306;8.570;2023-07-20T05:32:20;97792.59;;;26.08;41.17
20987;BME280;10652;50.306;8.570;2023-07-20T05:36:24;97795.38;;;24.06;43.41
20987;BME280;10652;50.306;8.570;2023-07-20T05:40:26;97807.75;;;25.62;43.07
20987;BME280;10652;50.306;8.570;2023-07-20T05:44:28;97802.13;;;26.27;40.32
20987;BME280;10652;50.306;8.570;2023-07-20T05:48:30;97806.88;;;23.90;44.02
20987;BME280;10652;50.306;8.570;2023-07-20T05:52:32;97805.72;;;23.85;45.67
20987;BME280;10652;50.306;8.570;2023-07-20T05:56:35;97820.13;;;23.32;45.73
20987;BME280;10652;50.306;8.570;2023-07-20T06:00:37;97815.06;;;25.93;43.76
20987;BME280;10652;50.306;8.570;2023-07-20T06:04:39;97815.19;;;24.79;43.01
20987;BME280;10652;50.306;8.570;2023-07-20T06:08:41;97821.53;;;24.54;44.98
20987;BME280;10652;50.306;8.570;2023-07-20T06:12:44;97815.41;;;27.80;39.85
20987;BME280;10652;50.306;8.570;2023-07-20T06:16:46;97822.41;;;30.29;37.42
20987;BME280;10652;50.306;8.570;2023-07-20T06:20:52;97814.94;;;32.35;34.33
20987;BME280;10652;50.306;8.570;2023-07-20T06:24:54;97830.16;;;31.65;33.59
20987;BME280;10652;50.306;8.570;2023-07-20T06:28:56;97841.44;;;27.58;36.91
20987;BME280;10652;50.306;8.570;2023-07-20T06:32:58;97836.94;;;24.44;41.89
20987;BME280;10652;50.306;8.570;2023-07-20T06:37:03;97844.13;;;22.80;45.33
20987;BME280;10652;50.306;8.570;2023-07-20T06:41:05;97848.00;;;22.06;47.73
20987;BME280;10652;50.306;8.570;2023-07-20T06:45:10;97850.31;;;21.54;49.11
20987;BME280;10652;50.306;8.570;2023-07-20T06:49:26;97853.34;;;20.74;51.69
20987;BME280;10652;50.306;8.570;2023-07-20T06:53:30;97850.41;;;20.18;53.15
20987;BME280;10652;50.306;8.570;2023-07-20T06:57:32;97852.34;;;19.97;55.20
20987;BME280;10652;50.306;8.570;2023-07-20T07:01:34;97865.50;;;19.68;55.64
20987;BME280;10652;50.306;8.570;2023-07-20T07:05:37;97861.94;;;19.58;56.67
20987;BME280;10652;50.306;8.570;2023-07-20T07:09:40;97862.78;;;19.58;55.78
20987;BME280;10652;50.306;8.570;2023-07-20T07:13:42;97863.81;;;19.67;56.50
20987;BME280;10652;50.306;8.570;2023-07-20T07:17:44;97857.88;;;19.84;56.42
20987;BME280;10652;50.306;8.570;2023-07-20T07:21:46;97858.09;;;19.71;55.75
20987;BME280;10652;50.306;8.570;2023-07-20T07:25:49;97864.44;;;19.50;56.48
20987;BME280;10652;50.306;8.570;2023-07-20T07:29:51;97872.97;;;19.44;56.75
20987;BME280;10652;50.306;8.570;2023-07-20T07:33:53;97877.50;;;19.32;57.79
20987;BME280;10652;50.306;8.570;2023-07-20T07:37:55;97875.56;;;19.13;57.97
20987;BME280;10652;50.306;8.570;2023-07-20T07:42:18;97875.06;;;19.08;58.54
20987;BME280;10652;50.306;8.570;2023-07-20T07:46:20;97868.53;;;19.54;58.80
20987;BME280;10652;50.306;8.570;2023-07-20T07:50:23;97863.03;;;20.06;55.94
20987;BME280;10652;50.306;8.570;2023-07-20T07:54:25;97872.56;;;20.68;54.76
20987;BME280;10652;50.306;8.570;2023-07-20T07:58:27;97864.59;;;21.16;53.06
20987;BME280;10652;50.306;8.570;2023-07-20T08:02:29;97866.81;;;21.21;52.85
20987;BME280;10652;50.306;8.570;2023-07-20T08:06:32;97868.53;;;20.93;52.58
20987;BME280;10652;50.306;8.570;2023-07-20T08:10:34;97874.16;;;20.71;52.33
20987;BME280;10652;50.306;8.570;2023-07-20T08:14:36;97864.28;;;20.61;52.96
20987;BME280;10652;50.306;8.570;2023-07-20T08:18:38;97872.84;;;20.65;51.96
20987;BME280;10652;50.306;8.570;2023-07-20T08:22:41;97880.31;;;21.10;53.55
20987;BME280;10652;50.306;8.570;2023-07-20T08:26:43;97889.00;;;21.40;51.48
20987;BME280;10652;50.306;8.570;2023-07-20T08:30:46;97893.66;;;21.29;51.29
20987;BME280;10652;50.306;8.570;2023-07-20T08:34:49;97892.16;;;21.07;51.34
20987;BME280;10652;50.306;8.570;2023-07-20T08:38:52;97883.63;;;20.54;51.40
20987;BME280;10652;50.306;8.570;2023-07-20T08:42:54;97883.44;;;20.27;52.95
20987;BME280;10652;50.306;8.570;2023-07-20T08:46:57;97887.69;;;20.39;53.69
20987;BME280;10652;50.306;8.570;2023-07-20T08:51:01;97878.66;;;20.80;52.54
20987;BME280;10652;50.306;8.570;2023-07-20T08:55:05;97881.72;;;21.04;50.64
20987;BME280;10652;50.306;8.570;2023-07-20T08:59:08;97888.63;;;21.07;50.88
20987;BME280;10652;50.306;8.570;2023-07-20T09:03:11;97878.19;;;21.23;50.51
20987;BME280;10652;50.306;8.570;2023-07-20T09:07:14;97875.94;;;21.47;47.80
20987;BME280;10652;50.306;8.570;2023-07-20T09:11:16;97882.53;;;21.43;49.11
20987;BME280;10652;50.306;8.570;2023-07-20T09:15:19;97879.16;;;21.51;49.48
20987;BME280;10652;50.306;8.570;2023-07-20T09:19:22;97875.47;;;21.61;49.67
20987;BME280;10652;50.306;8.570;2023-07-20T09:23:34;97878.56;;;21.66;47.87
20987;BME280;10652;50.306;8.570;2023-07-20T09:27:48;97882.22;;;21.65;47.19
20987;BME280;10652;50.306;8.570;2023-07-20T09:32:03;97890.13;;;21.57;46.70
20987;BME280;10652;50.306;8.570;2023-07-20T09:36:06;97885.34;;;21.51;46.36
20987;BME280;10652;50.306;8.570;2023-07-20T09:40:28;97885.16;;;21.62;48.21
20987;BME280;10652;50.306;8.570;2023-07-20T09:44:34;97866.31;;;22.01;46.20
20987;BME280;10652;50.306;8.570;2023-07-20T09:48:39;97875.34;;;22.27;46.96
20987;BME280;10652;50.306;8.570;2023-07-20T09:53:01;97887.22;;;21.87;46.12
20987;BME280;10652;50.306;8.570;2023-07-20T09:57:07;97883.81;;;21.39;46.08
20987;BME280;10652;50.306;8.570;2023-07-20T10:01:12;97875.28;;;21.07;47.55
20987;BME280;10652;50.306;8.570;2023-07-20T10:05:16;97870.19;;;21.23;48.23
20987;BME280;10652;50.306;8.570;2023-07-20T10:09:19;97870.44;;;21.48;48.21
20987;BME280;10652;50.306;8.570;2023-07-20T10:13:26;97859.09;;;21.74;46.81
20987;BME280;10652;50.306;8.570;2023-07-20T10:17:29;97852.22;;;21.99;45.27
20987;BME280;10652;50.306;8.570;2023-07-20T10:21:33;97855.78;;;22.26;45.62
20987;BME280;10652;50.306;8.570;2023-07-20T10:25:40;97850.91;;;22.40;44.63
20987;BME280;10652;50.306;8.570;2023-07-20T10:29:44;97854.16;;;22.43;44.02
20987;BME280;10652;50.306;8.570;2023-07-20T10:33:47;97852.88;;;22.20;43.32
20987;BME280;10652;50.306;8.570;2023-07-20T10:37:53;97849.50;;;22.08;43.44
20987;BME280;10652;50.306;8.570;2023-07-20T10:42:08;97835.38;;;21.98;43.77
20987;BME280;10652;50.306;8.570;2023-07-20T10:46:12;97830.25;;;22.05;43.24
20987;BME280;10652;50.306;8.570;2023-07-20T10:50:14;97828.44;;;22.32;43.07
20987;BME280;10652;50.306;8.570;2023-07-20T10:58:19;97826.22;;;22.63;41.11
20987;BME280;10652;50.306;8.570;2023-07-20T11:02:28;97826.72;;;22.31;39.88
20987;BME280;10652;50.306;8.570;2023-07-20T11:06:31;97825.41;;;22.18;41.13
20987;BME280;10652;50.306;8.570;2023-07-20T11:10:40;97824.28;;;22.20;42.42
20987;BME280;10652;50.306;8.570;2023-07-20T11:14:44;97828.28;;;22.34;42.78
20987;BME280;10652;50.306;8.570;2023-07-20T11:18:55;97823.78;;;22.52;42.59
20987;BME280;10652;50.306;8.570;2023-07-20T11:22:58;97817.78;;;22.76;42.14
20987;BME280;10652;50.306;8.570;2023-07-20T11:27:00;97814.47;;;22.92;38.93
20987;BME280;10652;50.306;8.570;2023-07-20T11:31:03;97812.25;;;22.87;39.79
20987;BME280;10652;50.306;8.570;2023-07-20T11:35:05;97795.31;;;22.87;38.46
20987;BME280;10652;50.306;8.570;2023-07-20T11:39:09;97804.50;;;23.02;37.75
20987;BME280;10652;50.306;8.570;2023-07-20T11:43:12;97799.56;;;23.15;39.02
20987;BME280;10652;50.306;8.570;2023-07-20T11:47:17;97801.03;;;23.35;38.52
20987;BME280;10652;50.306;8.570;2023-07-20T11:51:20;97789.00;;;23.39;37.65
20987;BME280;10652;50.306;8.570;2023-07-20T11:55:22;97787.44;;;23.54;38.54
20987;BME280;10652;50.306;8.570;2023-07-20T11:59:25;97789.88;;;23.74;38.89
20987;BME280;10652;50.306;8.570;2023-07-20T12:03:27;97776.47;;;23.74;38.38
20987;BME280;10652;50.306;8.570;2023-07-20T12:07:35;97771.47;;;23.79;39.34
20987;BME280;10652;50.306;8.570;2023-07-20T12:11:38;97771.09;;;23.74;35.07
20987;BME280;10652;50.306;8.570;2023-07-20T12:15:41;97778.31;;;23.73;35.89
20987;BME280;10652;50.306;8.570;2023-07-20T12:19:44;97770.75;;;23.68;35.14
20987;BME280;10652;50.306;8.570;2023-07-20T12:23:46;97770.41;;;23.72;36.32
20987;BME280;10652;50.306;8.570;2023-07-20T12:27:48;97765.47;;;23.85;36.88
20987;BME280;10652;50.306;8.570;2023-07-20T12:31:51;97767.19;;;24.02;36.38
20987;BME280;10652;50.306;8.570;2023-07-20T12:35:53;97763.19;;;24.14;34.19
20987;BME280;10652;50.306;8.570;2023-07-20T12:39:58;97763.41;;;24.21;35.53
20987;BME280;10652;50.306;8.570;2023-07-20T12:44:00;97766.59;;;24.24;35.55
20987;BME280;10652;50.306;8.570;2023-07-20T12:48:02;97757.88;;;24.22;35.86
20987;BME280;10652;50.306;8.570;2023-07-20T12:52:05;97759.56;;;24.31;36.71
20987;BME280;10652;50.306;8.570;2023-07-20T12:56:07;97749.69;;;24.48;33.99
20987;BME280;10652;50.306;8.570;2023-07-20T13:00:14;97742.25;;;24.26;34.44
20987;BME280;10652;50.306;8.570;2023-07-20T13:04:16;97733.72;;;24.30;35.19
20987;BME280;10652;50.306;8.570;2023-07-20T13:08:18;97746.81;;;24.41;33.67
20987;BME280;10652;50.306;8.570;2023-07-20T13:12:21;97739.13;;;24.46;33.83
20987;BME280;10652;50.306;8.570;2023-07-20T13:16:24;97735.06;;;24.67;34.91
20987;BME280;10652;50.306;8.570;2023-07-20T13:20:26;97735.75;;;24.61;34.87
20987;BME280;10652;50.306;8.570;2023-07-20T13:24:30;97729.72;;;24.50;34.86
20987;BME280;10652;50.306;8.570;2023-07-20T13:28:32;97729.56;;;24.52;34.79
20987;BME280;10652;50.306;8.570;2023-07-20T13:32:34;97727.38;;;24.55;34.86
20987;BME280;10652;50.306;8.570;2023-07-20T13:36:36;97739.25;;;24.53;34.66
20987;BME280;10652;50.306;8.570;2023-07-20T13:40:39;97733.09;;;24.52;34.65
20987;BME280;10652;50.306;8.570;2023-07-20T13:44:41;97738.78;;;24.49;33.85
20987;BME280;10652;50.306;8.570;2023-07-20T13:48:43;97737.09;;;24.48;34.42
20987;BME280;10652;50.306;8.570;2023-07-20T13:52:45;97732.41;;;24.42;35.25
20987;BME280;10652;50.306;8.570;2023-07-20T13:56:47;97736.72;;;24.27;34.27
20987;BME280;10652;50.306;8.570;2023-07-20T14:00:50;97735.00;;;24.18;35.48
20987;BME280;10652;50.306;8.570;2023-07-20T14:04:52;97733.00;;;24.20;33.84
20987;BME280;10652;50.306;8.570;2023-07-20T14:09:00;97728.91;;;23.92;33.73
20987;BME280;10652;50.306;8.570;2023-07-20T14:13:03;97726.84;;;23.78;34.58
20987;BME280;10652;50.306;8.570;2023-07-20T14:17:05;97724.03;;;23.53;34.11
20987;BME280;10652;50.306;8.570;2023-07-20T14:21:07;97716.19;;;23.26;34.75
20987;BME280;10652;50.306;8.570;2023-07-20T14:25:10;97725.25;;;23.25;35.06
20987;BME280;10652;50.306;8.570;2023-07-20T14:29:12;97729.66;;;23.08;35.63
20987;BME280;10652;50.306;8.570;2023-07-20T14:33:15;97719.06;;;22.99;35.70
20987;BME280;10652;50.306;8.570;2023-07-20T14:37:17;97727.94;;;22.99;35.62
20987;BME280;10652;50.306;8.570;2023-07-20T14:41:19;97717.91;;;23.01;36.01
20987;BME280;10652;50.306;8.570;2023-07-20T14:45:21;97713.81;;;23.15;36.08
20987;BME280;10652;50.306;8.570;2023-07-20T14:49:25;97717.91;;;23.35;35.35
20987;BME280;10652;50.306;8.570;2023-07-20T14:53:28;97712.88;;;23.32;35.25
20987;BME280;10652;50.306;8.570;2023-07-20T14:57:37;97712.25;;;23.38;35.26
20987;BME280;10652;50.306;8.570;2023-07-20T15:01:39;97711.34;;;23.55;34.84
20987;BME280;10652;50.306;8.570;2023-07-20T15:05:42;97707.28;;;23.51;34.71
20987;BME280;10652;50.306;8.570;2023-07-20T15:09:44;97702.56;;;23.45;35.15
20987;BME280;10652;50.306;8.570;2023-07-20T15:13:47;97699.25;;;23.51;35.56
20987;BME280;10652;50.306;8.570;2023-07-20T15:17:49;97703.03;;;23.66;35.77
20987;BME280;10652;50.306;8.570;2023-07-20T15:21:52;97701.06;;;23.85;35.50
20987;BME280;10652;50.306;8.570;2023-07-20T15:25:54;97696.88;;;23.98;35.38
20987;BME280;10652;50.306;8.570;2023-07-20T15:29:56;97686.19;;;24.15;34.51
20987;BME280;10652;50.306;8.570;2023-07-20T15:33:58;97690.66;;;23.90;34.42
20987;BME280;10652;50.306;8.570;2023-07-20T15:38:01;97694.31;;;23.81;34.61
20987;BME280;10652;50.306;8.570;2023-07-20T15:42:03;97684.63;;;23.88;34.45
20987;BME280;10652;50.306;8.570;2023-07-20T15:50:55;97682.31;;;23.93;35.31
20987;BME280;10652;50.306;8.570;2023-07-20T15:54:57;97673.47;;;23.58;35.78
20987;BME280;10652;50.306;8.570;2023-07-20T15:58:59;97679.91;;;23.40;36.20
20987;BME280;10652;50.306;8.570;2023-07-20T16:03:01;97677.88;;;23.00;36.67
20987;BME280;10652;50.306;8.570;2023-07-20T16:07:04;97671.94;;;22.88;36.83
20987;BME280;10652;50.306;8.570;2023-07-20T16:11:08;97664.00;;;23.04;36.16
20987;BME280;10652;50.306;8.570;2023-07-20T16:15:11;97663.88;;;23.14;35.91
20987;BME280;10652;50.306;8.570;2023-07-20T16:19:13;97654.28;;;23.03;36.49
20987;BME280;10652;50.306;8.570;2023-07-20T16:23:15;97654.72;;;22.91;36.71
20987;BME280;10652;50.306;8.570;2023-07-20T16:27:18;97658.31;;;22.81;36.85
20987;BME280;10652;50.306;8.570;2023-07-20T16:31:20;97646.75;;;22.81;36.36
20987;BME280;10652;50.306;8.570;2023-07-20T16:35:22;97648.28;;;22.84;36.38
20987;BME280;10652;50.306;8.570;2023-07-20T16:39:45;97645.06;;;22.98;37.00
20987;BME280;10652;50.306;8.570;2023-07-20T16:43:48;97639.34;;;22.93;37.70
20987;BME280;10652;50.306;8.570;2023-07-20T16:47:56;97647.06;;;23.04;36.85
20987;BME280;10652;50.306;8.570;2023-07-20T16:51:58;97642.38;;;22.98;36.66
20987;BME280;10652;50.306;8.570;2023-07-20T16:56:00;97637.56;;;22.84;37.14
20987;BME280;10652;50.306;8.570;2023-07-20T17:00:02;97638.78;;;22.63;37.46
20987;BME280;10652;50.306;8.570;2023-07-20T17:04:08;97647.28;;;22.59;37.66
20987;BME280;10652;50.306;8.570;2023-07-20T17:08:11;97637.63;;;22.66;37.77
20987;BME280;10652;50.306;8.570;2023-07-20T17:12:13;97651.13;;;22.56;38.25
20987;BME280;10652;50.306;8.570;2023-07-20T17:16:15;97647.00;;;22.44;38.78
20987;BME280;10652;50.306;8.570;2023-07-20T17:20:19;97649.56;;;22.28;39.30
20987;BME280;10652;50.306;8.570;2023-07-20T17:24:24;97645.19;;;22.09;40.08
20987;BME280;10652;50.306;8.570;2023-07-20T17:28:29;97647.47;;;21.86;40.81
20987;BME280;10652;50.306;8.570;2023-07-20T17:32:35;97640.63;;;21.84;40.46
20987;BME280;10652;50.306;8.570;2023-07-20T17:36:39;97638.34;;;21.89;40.63
20987;BME280;10652;50.306;8.570;2023-07-20T17:40:44;97639.78;;;21.83;40.65
20987;BME280;10652;50.306;8.570;2023-07-20T17:44:46;97633.19;;;21.78;40.30
20987;BME280;10652;50.306;8.570;2023-07-20T17:48:48;97625.94;;;21.70;41.40
20987;BME280;10652;50.306;8.570;2023-07-20T17:52:50;97638.97;;;21.56;41.56
20987;BME280;10652;50.306;8.570;2023-07-20T17:56:52;97632.59;;;21.39;41.48
20987;BME280;10652;50.306;8.570;2023-07-20T18:00:57;97631.75;;;21.11;42.18
20987;BME280;10652;50.306;8.570;2023-07-20T18:04:59;97631.03;;;20.82;42.52
20987;BME280;10652;50.306;8.570;2023-07-20T18:09:02;97632.47;;;20.67;42.74
20987;BME280;10652;50.306;8.570;2023-07-20T18:13:04;97627.72;;;20.51;43.50
20987;BME280;10652;50.306;8.570;2023-07-20T18:17:07;97628.69;;;20.50;43.72
20987;BME280;10652;50.306;8.570;2023-07-20T18:21:09;97622.06;;;20.54;43.51
20987;BME280;10652;50.306;8.570;2023-07-20T18:25:11;97622.09;;;20.44;43.97
20987;BME280;10652;50.306;8.570;2023-07-20T18:29:13;97618.19;;;20.39;44.42
20987;BME280;10652;50.306;8.570;2023-07-20T18:33:16;97630.72;;;20.29;44.56
20987;BME280;10652;50.306;8.570;2023-07-20T18:37:18;97625.81;;;20.05;44.78
20987;BME280;10652;50.306;8.570;2023-07-20T18:41:22;97623.31;;;19.94;45.26
20987;BME280;10652;50.306;8.570;2023-07-20T18:45:25;97625.78;;;19.76;45.46
20987;BME280;10652;50.306;8.570;2023-07-20T18:49:29;97624.53;;;19.61;46.23
20987;BME280;10652;50.306;8.570;2023-07-20T18:53:31;97625.88;;;19.46;46.13
20987;BME280;10652;50.306;8.570;2023-07-20T18:57:34;97629.94;;;19.40;46.37
20987;BME280;10652;50.306;8.570;2023-07-20T19:01:39;97630.06;;;19.29;46.48
20987;BME280;10652;50.306;8.570;2023-07-20T19:05:42;97630.47;;;19.24;47.08
20987;BME280;10652;50.306;8.570;2023-07-20T19:09:46;97634.19;;;19.12;47.68
20987;BME280;10652;50.306;8.570;2023-07-20T19:13:49;97643.22;;;18.91;48.29
20987;BME280;10652;50.306;8.570;2023-07-20T19:17:51;97637.09;;;18.69;49.06
20987;BME280;10652;50.306;8.570;2023-07-20T19:21:54;97637.88;;;18.60;49.61
20987;BME280;10652;50.306;8.570;2023-07-20T19:25:56;97643.34;;;18.59;49.83
20987;BME280;10652;50.306;8.570;2023-07-20T19:29:58;97634.72;;;18.66;50.44
20987;BME280;10652;50.306;8.570;2023-07-20T19:34:00;97642.25;;;18.61;51.63
20987;BME280;10652;50.306;8.570;2023-07-20T19:38:03;97650.06;;;18.63;51.09
20987;BME280;10652;50.306;8.570;2023-07-20T19:42:08;97653.13;;;18.58;51.03
20987;BME280;10652;50.306;8.570;2023-07-20T19:46:10;97662.97;;;18.58;51.35
20987;BME280;10652;50.306;8.570;2023-07-20T19:50:12;97658.72;;;18.55;51.20
20987;BME280;10652;50.306;8.570;2023-07-20T19:54:14;97662.03;;;18.48;51.24
20987;BME280;10652;50.306;8.570;2023-07-20T19:58:19;97658.59;;;18.36;52.11
20987;BME280;10652;50.306;8.570;2023-07-20T20:02:21;97669.66;;;18.20;52.63
20987;BME280;10652;50.306;8.570;2023-07-20T20:06:23;97670.25;;;18.03;53.37
20987;BME280;10652;50.306;8.570;2023-07-20T20:10:26;97671.00;;;17.94;53.73
20987;BME280;10652;50.306;8.570;2023-07-20T20:14:29;97661.75;;;17.77;53.98
20987;BME280;10652;50.306;8.570;2023-07-20T20:18:31;97657.75;;;17.72;55.02
20987;BME280;10652;50.306;8.570;2023-07-20T20:22:34;97651.28;;;17.65;55.06
20987;BME280;10652;50.306;8.570;2023-07-20T20:26:37;97656.03;;;17.39;55.89
20987;BME280;10652;50.306;8.570;2023-07-20T20:30:49;97655.72;;;17.10;57.86
20987;BME280;10652;50.306;8.570;2023-07-20T20:34:52;97654.38;;;17.04;58.47
20987;BME280;10652;50.306;8.570;2023-07-20T20:38:54;97651.34;;;17.09;58.30
20987;BME280;10652;50.306;8.570;2023-07-20T20:42:56;97650.25;;;17.23;58.08
20987;BME280;10652;50.306;8.570;2023-07-20T20:46:58;97639.75;;;17.32;57.41
20987;BME280;10652;50.306;8.570;2023-07-20T20:51:04;97640.22;;;17.26;57.78
20987;BME280;10652;50.306;8.570;2023-07-20T20:55:07;97643.66;;;17.06;58.97
20987;BME280;10652;50.306;8.570;2023-07-20T20:59:10;97638.34;;;16.95;60.14
20987;BME280;10652;50.306;8.570;2023-07-20T21:03:13;97645.22;;;16.97;59.69
20987;BME280;10652;50.306;8.570;2023-07-20T21:07:15;97639.56;;;17.02;58.93
20987;BME280;10652;50.306;8.570;2023-07-20T21:11:17;97635.81;;;17.04;58.25
20987;BME280;10652;50.306;8.570;2023-07-20T21:15:19;97633.03;;;16.95;59.07
20987;BME280;10652;50.306;8.570;2023-07-20T21:19:21;97635.94;;;16.70;61.21
20987;BME280;10652;50.306;8.570;2023-07-20T21:23:23;97632.16;;;16.50;62.61
20987;BME280;10652;50.306;8.570;2023-07-20T21:27:26;97635.16;;;16.34;63.77
20987;BME280;10652;50.306;8.570;2023-07-20T21:31:28;97641.03;;;16.27;64.11
20987;BME280;10652;50.306;8.570;2023-07-20T21:35:31;97637.75;;;16.23;64.40
20987;BME280;10652;50.306;8.570;2023-07-20T21:39:34;97634.16;;;16.24;64.60
20987;BME280;10652;50.306;8.570;2023-07-20T21:43:36;97631.97;;;16.18;64.88
20987;BME280;10652;50.306;8.570;2023-07-20T21:47:39;97639.75;;;16.08;65.30
20987;BME280;10652;50.306;8.570;2023-07-20T21:51:41;97642.06;;;16.13;65.71